If you wish to contribute or participate in the discussions about articles you are invited to join SKYbrary as a registered user

 Actions

Vijayawada Airport

From SKYbrary Wiki

VOBZ
Airport
ICAO: VOBZ
Summary
Name Vijayawada Airport
Region Asia and Pacific
Territory India IN.gif
Location Vijayawada, Andhra Pradesh
Serving Vijayawada
Coordinates 16° 31' 42.06" N, 80° 47' 38.90" E
Runways
Designator Length Width Surface ROPS
8/26 2408 m7,900.262 ft <br /> 46 m150.919 ft <br /> ASP /


METAR
Observation VOBZ 140000Z 00000KT 5000 HZ SCT020 BKN080 26/25 Q1000 NOSIG
Station Vijayawada / Gannavaram
Date/Time 14 June 2021 00:00:00
Wind direction
Wind speed 00 kts
Lowest cloud amount scattered clouds
Temperature 26°C
Dew point 25°C
Humidity 94%
QNH 1000 hPa
Weather condition n/a

WX
Tag(s) Cumulonimbus

Vijayawada Airport

ICAO: VOBZ IATA: VGA

Description

Vijayawada Airport is a regional airport located 20 km10.799 nm <br />20,000 m <br />65,616.798 ft <br /> east of the central business district of Vijayawada, a city in the state of Andhra Pradesh, India.

Climatology

Tropical Savanna climate (Köppen climate classification Aw) - monthly mean temperatures above 18°C64.4 °F <br />291.15 K <br />524.07 °R <br />, and a pronounced dry season. A Tropical Savanna climate has more pronounced dry seasons than a Tropical Monsoon climate.

Maps

Terrain

Loading map...

Airport Layout

Loading map...


Accidents & Serious Incidents at or in vicinity of VOBZ

None on SKYbrary